sensor_id;sensor_type;location;lat;lon;timestamp;P1;durP1;ratioP1;P2;durP2;ratioP2
46455;SDS011;64052;47.466;9.094;2023-03-23T00:04:42;3.45;;;2.75;;
46455;SDS011;64052;47.466;9.094;2023-03-23T00:09:43;4.13;;;2.42;;
46455;SDS011;64052;47.466;9.094;2023-03-23T00:14:43;2.92;;;2.60;;
46455;SDS011;64052;47.466;9.094;2023-03-23T00:19:44;3.47;;;2.60;;
46455;SDS011;64052;47.466;9.094;2023-03-23T00:24:44;3.17;;;2.47;;
46455;SDS011;64052;47.466;9.094;2023-03-23T00:29:45;3.58;;;2.58;;
46455;SDS011;64052;47.466;9.094;2023-03-23T00:34:46;3.42;;;3.00;;
46455;SDS011;64052;47.466;9.094;2023-03-23T00:39:47;2.70;;;2.13;;
46455;SDS011;64052;47.466;9.094;2023-03-23T00:44:47;2.40;;;2.10;;
46455;SDS011;64052;47.466;9.094;2023-03-23T00:49:48;3.92;;;2.97;;
46455;SDS011;64052;47.466;9.094;2023-03-23T00:54:48;3.03;;;2.30;;
46455;SDS011;64052;47.466;9.094;2023-03-23T00:59:50;6.38;;;2.47;;
46455;SDS011;64052;47.466;9.094;2023-03-23T01:04:51;2.58;;;2.00;;
46455;SDS011;64052;47.466;9.094;2023-03-23T01:09:52;3.22;;;2.30;;
46455;SDS011;64052;47.466;9.094;2023-03-23T01:14:52;2.30;;;1.88;;
46455;SDS011;64052;47.466;9.094;2023-03-23T01:19:53;2.70;;;2.20;;
46455;SDS011;64052;47.466;9.094;2023-03-23T01:24:53;3.53;;;2.20;;
46455;SDS011;64052;47.466;9.094;2023-03-23T01:29:54;2.15;;;1.95;;
46455;SDS011;64052;47.466;9.094;2023-03-23T01:34:54;3.15;;;2.05;;
46455;SDS011;64052;47.466;9.094;2023-03-23T01:39:55;2.28;;;1.95;;
46455;SDS011;64052;47.466;9.094;2023-03-23T01:50:19;5.07;;;2.20;;
46455;SDS011;64052;47.466;9.094;2023-03-23T01:55:24;2.97;;;2.50;;
46455;SDS011;64052;47.466;9.094;2023-03-23T02:00:26;2.25;;;1.75;;
46455;SDS011;64052;47.466;9.094;2023-03-23T02:05:30;2.55;;;1.90;;
46455;SDS011;64052;47.466;9.094;2023-03-23T02:10:39;2.45;;;1.92;;
46455;SDS011;64052;47.466;9.094;2023-03-23T02:15:55;2.42;;;1.90;;
46455;SDS011;64052;47.466;9.094;2023-03-23T02:21:09;2.17;;;1.95;;
46455;SDS011;64052;47.466;9.094;2023-03-23T02:31:51;2.25;;;1.73;;
46455;SDS011;64052;47.466;9.094;2023-03-23T02:37:06;1.98;;;1.80;;
46455;SDS011;64052;47.466;9.094;2023-03-23T02:42:13;3.97;;;2.00;;
46455;SDS011;64052;47.466;9.094;2023-03-23T02:47:25;2.40;;;2.05;;
46455;SDS011;64052;47.466;9.094;2023-03-23T02:52:29;2.92;;;1.77;;
46455;SDS011;64052;47.466;9.094;2023-03-23T02:57:31;2.17;;;1.88;;
46455;SDS011;64052;47.466;9.094;2023-03-23T03:02:35;2.33;;;1.95;;
46455;SDS011;64052;47.466;9.094;2023-03-23T03:07:44;2.92;;;2.40;;
46455;SDS011;64052;47.466;9.094;2023-03-23T03:23:13;2.60;;;2.17;;
46455;SDS011;64052;47.466;9.094;2023-03-23T03:28:18;2.80;;;2.22;;
46455;SDS011;64052;47.466;9.094;2023-03-23T03:33:21;2.40;;;2.20;;
46455;SDS011;64052;47.466;9.094;2023-03-23T03:38:24;4.70;;;2.83;;
46455;SDS011;64052;47.466;9.094;2023-03-23T03:43:27;4.13;;;3.53;;
46455;SDS011;64052;47.466;9.094;2023-03-23T03:48:27;5.10;;;4.10;;
46455;SDS011;64052;47.466;9.094;2023-03-23T03:53:28;4.60;;;4.05;;
46455;SDS011;64052;47.466;9.094;2023-03-23T03:58:29;4.13;;;3.60;;
46455;SDS011;64052;47.466;9.094;2023-03-23T04:03:39;4.45;;;3.53;;
46455;SDS011;64052;47.466;9.094;2023-03-23T04:08:46;3.15;;;2.72;;
46455;SDS011;64052;47.466;9.094;2023-03-23T04:13:47;3.85;;;3.17;;
46455;SDS011;64052;47.466;9.094;2023-03-23T04:18:54;4.30;;;3.50;;
46455;SDS011;64052;47.466;9.094;2023-03-23T04:23:55;3.30;;;3.00;;
46455;SDS011;64052;47.466;9.094;2023-03-23T04:28:56;4.35;;;3.33;;
46455;SDS011;64052;47.466;9.094;2023-03-23T04:34:17;4.22;;;2.92;;
46455;SDS011;64052;47.466;9.094;2023-03-23T04:39:21;7.38;;;3.67;;
46455;SDS011;64052;47.466;9.094;2023-03-23T04:44:22;3.25;;;2.95;;
46455;SDS011;64052;47.466;9.094;2023-03-23T04:49:35;4.03;;;3.22;;
46455;SDS011;64052;47.466;9.094;2023-03-23T04:54:46;4.50;;;3.10;;
46455;SDS011;64052;47.466;9.094;2023-03-23T04:59:46;3.33;;;3.03;;
46455;SDS011;64052;47.466;9.094;2023-03-23T05:04:51;5.43;;;3.65;;
46455;SDS011;64052;47.466;9.094;2023-03-23T05:09:55;4.18;;;3.78;;
46455;SDS011;64052;47.466;9.094;2023-03-23T05:15:00;4.50;;;3.50;;
46455;SDS011;64052;47.466;9.094;2023-03-23T05:20:04;4.22;;;2.85;;
46455;SDS011;64052;47.466;9.094;2023-03-23T05:25:28;4.25;;;2.60;;
46455;SDS011;64052;47.466;9.094;2023-03-23T05:30:35;2.20;;;2.00;;
46455;SDS011;64052;47.466;9.094;2023-03-23T05:35:37;2.22;;;2.03;;
46455;SDS011;64052;47.466;9.094;2023-03-23T05:40:38;2.97;;;1.95;;
46455;SDS011;64052;47.466;9.094;2023-03-23T05:45:47;2.08;;;1.88;;
46455;SDS011;64052;47.466;9.094;2023-03-23T05:50:48;2.10;;;1.88;;
46455;SDS011;64052;47.466;9.094;2023-03-23T05:55:48;3.95;;;2.38;;
46455;SDS011;64052;47.466;9.094;2023-03-23T06:01:00;2.90;;;2.45;;
46455;SDS011;64052;47.466;9.094;2023-03-23T06:06:03;3.03;;;1.80;;
46455;SDS011;64052;47.466;9.094;2023-03-23T06:11:19;4.00;;;2.83;;
46455;SDS011;64052;47.466;9.094;2023-03-23T06:16:34;4.28;;;2.67;;
46455;SDS011;64052;47.466;9.094;2023-03-23T06:21:40;2.47;;;1.88;;
46455;SDS011;64052;47.466;9.094;2023-03-23T06:26:57;3.55;;;1.90;;
46455;SDS011;64052;47.466;9.094;2023-03-23T06:31:58;3.30;;;2.10;;
46455;SDS011;64052;47.466;9.094;2023-03-23T06:37:02;3.50;;;2.10;;
46455;SDS011;64052;47.466;9.094;2023-03-23T06:42:16;4.60;;;2.00;;
46455;SDS011;64052;47.466;9.094;2023-03-23T06:47:23;3.17;;;2.13;;
46455;SDS011;64052;47.466;9.094;2023-03-23T06:52:25;2.75;;;1.98;;
46455;SDS011;64052;47.466;9.094;2023-03-23T06:57:27;4.50;;;2.45;;
46455;SDS011;64052;47.466;9.094;2023-03-23T07:02:29;4.05;;;2.20;;
46455;SDS011;64052;47.466;9.094;2023-03-23T07:07:30;2.80;;;2.03;;
46455;SDS011;64052;47.466;9.094;2023-03-23T07:12:49;2.65;;;2.38;;
46455;SDS011;64052;47.466;9.094;2023-03-23T07:17:50;3.40;;;2.50;;
46455;SDS011;64052;47.466;9.094;2023-03-23T07:22:59;5.18;;;2.35;;
46455;SDS011;64052;47.466;9.094;2023-03-23T07:28:22;6.07;;;2.20;;
46455;SDS011;64052;47.466;9.094;2023-03-23T07:33:24;3.85;;;2.30;;
46455;SDS011;64052;47.466;9.094;2023-03-23T07:38:25;2.45;;;2.00;;
46455;SDS011;64052;47.466;9.094;2023-03-23T07:43:26;5.65;;;2.17;;
46455;SDS011;64052;47.466;9.094;2023-03-23T07:48:44;2.97;;;2.22;;
46455;SDS011;64052;47.466;9.094;2023-03-23T07:53:46;3.72;;;2.00;;
46455;SDS011;64052;47.466;9.094;2023-03-23T08:04:10;2.30;;;2.10;;
46455;SDS011;64052;47.466;9.094;2023-03-23T08:09:41;2.40;;;2.20;;
46455;SDS011;64052;47.466;9.094;2023-03-23T08:15:11;3.88;;;2.10;;
46455;SDS011;64052;47.466;9.094;2023-03-23T08:20:31;4.40;;;2.30;;
46455;SDS011;64052;47.466;9.094;2023-03-23T08:25:34;2.17;;;1.98;;
46455;SDS011;64052;47.466;9.094;2023-03-23T08:31:07;2.75;;;1.75;;
46455;SDS011;64052;47.466;9.094;2023-03-23T08:36:23;2.97;;;2.00;;
46455;SDS011;64052;47.466;9.094;2023-03-23T08:41:41;1.80;;;1.70;;
46455;SDS011;64052;47.466;9.094;2023-03-23T08:46:52;2.38;;;1.70;;
46455;SDS011;64052;47.466;9.094;2023-03-23T08:52:15;3.72;;;1.73;;
46455;SDS011;64052;47.466;9.094;2023-03-23T08:57:35;2.72;;;1.98;;
46455;SDS011;64052;47.466;9.094;2023-03-23T09:03:02;2.05;;;1.80;;
46455;SDS011;64052;47.466;9.094;2023-03-23T09:08:28;2.00;;;1.63;;
46455;SDS011;64052;47.466;9.094;2023-03-23T09:13:30;3.03;;;1.65;;
46455;SDS011;64052;47.466;9.094;2023-03-23T09:18:30;1.70;;;1.60;;
46455;SDS011;64052;47.466;9.094;2023-03-23T09:23:32;3.97;;;1.67;;
46455;SDS011;64052;47.466;9.094;2023-03-23T09:28:33;3.13;;;1.40;;
46455;SDS011;64052;47.466;9.094;2023-03-23T09:33:33;1.98;;;1.55;;
46455;SDS011;64052;47.466;9.094;2023-03-23T09:38:33;3.92;;;1.45;;
46455;SDS011;64052;47.466;9.094;2023-03-23T09:43:50;2.28;;;1.17;;
46455;SDS011;64052;47.466;9.094;2023-03-23T09:48:52;2.38;;;1.50;;
46455;SDS011;64052;47.466;9.094;2023-03-23T09:53:56;1.77;;;1.27;;
46455;SDS011;64052;47.466;9.094;2023-03-23T09:59:16;2.75;;;1.20;;
46455;SDS011;64052;47.466;9.094;2023-03-23T10:09:51;1.88;;;1.55;;
46455;SDS011;64052;47.466;9.094;2023-03-23T10:35:34;2.03;;;1.40;;
46455;SDS011;64052;47.466;9.094;2023-03-23T10:40:44;2.65;;;1.52;;
46455;SDS011;64052;47.466;9.094;2023-03-23T10:46:01;1.67;;;1.42;;
46455;SDS011;64052;47.466;9.094;2023-03-23T10:51:06;2.63;;;1.40;;
46455;SDS011;64052;47.466;9.094;2023-03-23T10:56:56;1.60;;;1.20;;
46455;SDS011;64052;47.466;9.094;2023-03-23T11:01:37;1.58;;;1.35;;
46455;SDS011;64052;47.466;9.094;2023-03-23T11:06:37;2.53;;;1.70;;
46455;SDS011;64052;47.466;9.094;2023-03-23T11:11:39;1.90;;;1.60;;
46455;SDS011;64052;47.466;9.094;2023-03-23T11:17:00;1.48;;;1.35;;
46455;SDS011;64052;47.466;9.094;2023-03-23T11:27:04;2.08;;;1.42;;
46455;SDS011;64052;47.466;9.094;2023-03-23T11:32:06;2.67;;;2.05;;
46455;SDS011;64052;47.466;9.094;2023-03-23T11:37:14;3.17;;;1.70;;
46455;SDS011;64052;47.466;9.094;2023-03-23T11:42:35;2.50;;;1.30;;
46455;SDS011;64052;47.466;9.094;2023-03-23T11:47:43;1.60;;;1.27;;
46455;SDS011;64052;47.466;9.094;2023-03-23T11:58:11;3.58;;;3.20;;
46455;SDS011;64052;47.466;9.094;2023-03-23T12:03:13;1.88;;;1.48;;
46455;SDS011;64052;47.466;9.094;2023-03-23T12:19:01;1.65;;;1.30;;
46455;SDS011;64052;47.466;9.094;2023-03-23T12:24:26;2.55;;;1.00;;
46455;SDS011;64052;47.466;9.094;2023-03-23T12:45:48;1.67;;;1.30;;
46455;SDS011;64052;47.466;9.094;2023-03-23T12:56:23;1.95;;;1.40;;
46455;SDS011;64052;47.466;9.094;2023-03-23T13:01:36;1.80;;;1.20;;
46455;SDS011;64052;47.466;9.094;2023-03-23T13:11:44;2.90;;;1.50;;
46455;SDS011;64052;47.466;9.094;2023-03-23T13:22:06;1.63;;;1.10;;
46455;SDS011;64052;47.466;9.094;2023-03-23T13:27:12;1.65;;;1.55;;
46455;SDS011;64052;47.466;9.094;2023-03-23T13:32:16;2.13;;;1.33;;
46455;SDS011;64052;47.466;9.094;2023-03-23T13:37:20;2.70;;;1.25;;
46455;SDS011;64052;47.466;9.094;2023-03-23T13:42:26;2.08;;;1.35;;
46455;SDS011;64052;47.466;9.094;2023-03-23T13:47:35;2.13;;;1.20;;
46455;SDS011;64052;47.466;9.094;2023-03-23T14:13:31;2.35;;;1.58;;
46455;SDS011;64052;47.466;9.094;2023-03-23T14:18:36;1.88;;;1.50;;
46455;SDS011;64052;47.466;9.094;2023-03-23T14:23:38;2.08;;;1.38;;
46455;SDS011;64052;47.466;9.094;2023-03-23T14:28:42;2.97;;;1.70;;
46455;SDS011;64052;47.466;9.094;2023-03-23T14:33:43;2.28;;;1.90;;
46455;SDS011;64052;47.466;9.094;2023-03-23T14:38:44;4.63;;;3.80;;
46455;SDS011;64052;47.466;9.094;2023-03-23T14:43:45;4.05;;;3.00;;
46455;SDS011;64052;47.466;9.094;2023-03-23T14:48:45;1.90;;;1.65;;
46455;SDS011;64052;47.466;9.094;2023-03-23T14:53:46;4.45;;;2.10;;
46455;SDS011;64052;47.466;9.094;2023-03-23T14:58:48;2.20;;;1.95;;
46455;SDS011;64052;47.466;9.094;2023-03-23T15:03:56;2.00;;;1.77;;
46455;SDS011;64052;47.466;9.094;2023-03-23T15:09:01;3.03;;;2.30;;
46455;SDS011;64052;47.466;9.094;2023-03-23T15:14:20;2.80;;;2.55;;
46455;SDS011;64052;47.466;9.094;2023-03-23T15:19:27;2.40;;;2.08;;
46455;SDS011;64052;47.466;9.094;2023-03-23T15:24:36;2.22;;;1.80;;
46455;SDS011;64052;47.466;9.094;2023-03-23T15:29:48;2.97;;;1.73;;
46455;SDS011;64052;47.466;9.094;2023-03-23T15:34:53;2.53;;;2.17;;
46455;SDS011;64052;47.466;9.094;2023-03-23T15:39:54;3.10;;;1.50;;
46455;SDS011;64052;47.466;9.094;2023-03-23T15:55:26;2.25;;;1.75;;
46455;SDS011;64052;47.466;9.094;2023-03-23T16:00:28;2.58;;;1.95;;
46455;SDS011;64052;47.466;9.094;2023-03-23T16:05:30;2.70;;;1.60;;
46455;SDS011;64052;47.466;9.094;2023-03-23T16:10:34;5.15;;;3.00;;
46455;SDS011;64052;47.466;9.094;2023-03-23T16:15:36;4.65;;;3.13;;
46455;SDS011;64052;47.466;9.094;2023-03-23T16:20:37;4.15;;;2.00;;
46455;SDS011;64052;47.466;9.094;2023-03-23T16:25:39;2.08;;;1.90;;
46455;SDS011;64052;47.466;9.094;2023-03-23T16:30:42;3.90;;;2.40;;
46455;SDS011;64052;47.466;9.094;2023-03-23T16:35:45;3.30;;;2.53;;
46455;SDS011;64052;47.466;9.094;2023-03-23T16:40:46;2.33;;;1.83;;
46455;SDS011;64052;47.466;9.094;2023-03-23T16:45:48;2.92;;;2.13;;
46455;SDS011;64052;47.466;9.094;2023-03-23T16:50:50;3.92;;;2.80;;
46455;SDS011;64052;47.466;9.094;2023-03-23T16:55:52;3.75;;;1.98;;
46455;SDS011;64052;47.466;9.094;2023-03-23T17:00:59;3.67;;;3.00;;
46455;SDS011;64052;47.466;9.094;2023-03-23T17:06:01;3.03;;;2.42;;
46455;SDS011;64052;47.466;9.094;2023-03-23T17:11:03;3.47;;;2.22;;
46455;SDS011;64052;47.466;9.094;2023-03-23T17:16:05;4.72;;;2.40;;
46455;SDS011;64052;47.466;9.094;2023-03-23T17:21:06;4.72;;;3.53;;
46455;SDS011;64052;47.466;9.094;2023-03-23T17:26:08;4.85;;;2.90;;
46455;SDS011;64052;47.466;9.094;2023-03-23T17:31:10;2.35;;;2.03;;
46455;SDS011;64052;47.466;9.094;2023-03-23T17:36:11;4.22;;;3.83;;
46455;SDS011;64052;47.466;9.094;2023-03-23T17:41:13;4.40;;;3.90;;
46455;SDS011;64052;47.466;9.094;2023-03-23T17:46:14;3.97;;;1.90;;
46455;SDS011;64052;47.466;9.094;2023-03-23T17:51:16;2.38;;;1.80;;
46455;SDS011;64052;47.466;9.094;2023-03-23T17:56:17;3.00;;;2.05;;
46455;SDS011;64052;47.466;9.094;2023-03-23T18:01:19;5.97;;;4.40;;
46455;SDS011;64052;47.466;9.094;2023-03-23T18:06:20;6.10;;;3.78;;
46455;SDS011;64052;47.466;9.094;2023-03-23T18:11:22;4.03;;;3.33;;
46455;SDS011;64052;47.466;9.094;2023-03-23T18:16:24;4.07;;;3.03;;
46455;SDS011;64052;47.466;9.094;2023-03-23T18:21:26;3.17;;;2.88;;
46455;SDS011;64052;47.466;9.094;2023-03-23T18:26:29;3.10;;;2.45;;
46455;SDS011;64052;47.466;9.094;2023-03-23T18:31:30;4.57;;;2.50;;
46455;SDS011;64052;47.466;9.094;2023-03-23T18:36:32;2.90;;;2.00;;
46455;SDS011;64052;47.466;9.094;2023-03-23T18:41:34;2.60;;;2.17;;
46455;SDS011;64052;47.466;9.094;2023-03-23T18:46:35;3.25;;;2.42;;
46455;SDS011;64052;47.466;9.094;2023-03-23T18:51:37;2.83;;;2.10;;
46455;SDS011;64052;47.466;9.094;2023-03-23T18:56:39;3.10;;;2.80;;
46455;SDS011;64052;47.466;9.094;2023-03-23T19:01:40;2.83;;;2.42;;
46455;SDS011;64052;47.466;9.094;2023-03-23T19:06:42;5.65;;;2.40;;
46455;SDS011;64052;47.466;9.094;2023-03-23T19:11:44;4.18;;;2.35;;
46455;SDS011;64052;47.466;9.094;2023-03-23T19:16:46;3.13;;;2.83;;
46455;SDS011;64052;47.466;9.094;2023-03-23T19:21:48;3.35;;;2.47;;
46455;SDS011;64052;47.466;9.094;2023-03-23T19:26:49;2.67;;;2.40;;
46455;SDS011;64052;47.466;9.094;2023-03-23T19:31:52;3.38;;;3.08;;
46455;SDS011;64052;47.466;9.094;2023-03-23T19:36:54;3.20;;;2.35;;
46455;SDS011;64052;47.466;9.094;2023-03-23T19:42:06;3.55;;;3.00;;
46455;SDS011;64052;47.466;9.094;2023-03-23T19:47:08;8.43;;;5.00;;
46455;SDS011;64052;47.466;9.094;2023-03-23T19:52:10;5.70;;;4.55;;
46455;SDS011;64052;47.466;9.094;2023-03-23T19:57:15;6.07;;;4.57;;
46455;SDS011;64052;47.466;9.094;2023-03-23T20:02:16;4.82;;;4.20;;
46455;SDS011;64052;47.466;9.094;2023-03-23T20:07:18;4.55;;;3.70;;
46455;SDS011;64052;47.466;9.094;2023-03-23T20:12:21;6.63;;;4.82;;
46455;SDS011;64052;47.466;9.094;2023-03-23T20:17:23;6.55;;;4.53;;
46455;SDS011;64052;47.466;9.094;2023-03-23T20:22:25;7.90;;;5.53;;
46455;SDS011;64052;47.466;9.094;2023-03-23T20:27:27;5.03;;;3.88;;
46455;SDS011;64052;47.466;9.094;2023-03-23T20:32:29;3.83;;;3.25;;
46455;SDS011;64052;47.466;9.094;2023-03-23T20:37:32;3.75;;;2.75;;
46455;SDS011;64052;47.466;9.094;2023-03-23T20:42:34;3.35;;;3.03;;
46455;SDS011;64052;47.466;9.094;2023-03-23T20:47:36;7.20;;;4.65;;
46455;SDS011;64052;47.466;9.094;2023-03-23T20:52:38;5.72;;;4.38;;
46455;SDS011;64052;47.466;9.094;2023-03-23T20:57:39;5.50;;;4.72;;
46455;SDS011;64052;47.466;9.094;2023-03-23T21:02:41;7.63;;;4.93;;
46455;SDS011;64052;47.466;9.094;2023-03-23T21:07:43;6.63;;;4.72;;
46455;SDS011;64052;47.466;9.094;2023-03-23T21:12:44;5.40;;;4.43;;
46455;SDS011;64052;47.466;9.094;2023-03-23T21:17:46;5.43;;;3.92;;
46455;SDS011;64052;47.466;9.094;2023-03-23T21:22:47;8.32;;;5.72;;
46455;SDS011;64052;47.466;9.094;2023-03-23T21:27:50;9.90;;;6.00;;
46455;SDS011;64052;47.466;9.094;2023-03-23T21:32:52;8.05;;;6.13;;
46455;SDS011;64052;47.466;9.094;2023-03-23T21:37:54;5.75;;;5.15;;
46455;SDS011;64052;47.466;9.094;2023-03-23T21:42:55;6.75;;;5.28;;
46455;SDS011;64052;47.466;9.094;2023-03-23T21:47:57;4.63;;;3.10;;
46455;SDS011;64052;47.466;9.094;2023-03-23T21:52:59;5.82;;;3.13;;
46455;SDS011;64052;47.466;9.094;2023-03-23T21:58:00;5.78;;;4.60;;
46455;SDS011;64052;47.466;9.094;2023-03-23T22:03:02;8.90;;;6.28;;
46455;SDS011;64052;47.466;9.094;2023-03-23T22:08:04;4.22;;;3.13;;
46455;SDS011;64052;47.466;9.094;2023-03-23T22:13:05;5.63;;;4.00;;
46455;SDS011;64052;47.466;9.094;2023-03-23T22:18:07;4.93;;;4.00;;
46455;SDS011;64052;47.466;9.094;2023-03-23T22:23:09;5.95;;;4.72;;
46455;SDS011;64052;47.466;9.094;2023-03-23T22:28:11;7.35;;;4.22;;
46455;SDS011;64052;47.466;9.094;2023-03-23T22:33:12;5.70;;;4.95;;
46455;SDS011;64052;47.466;9.094;2023-03-23T22:38:14;5.60;;;4.45;;
46455;SDS011;64052;47.466;9.094;2023-03-23T22:43:16;4.78;;;3.63;;
46455;SDS011;64052;47.466;9.094;2023-03-23T22:48:18;4.10;;;3.70;;
46455;SDS011;64052;47.466;9.094;2023-03-23T22:53:21;6.38;;;3.95;;
46455;SDS011;64052;47.466;9.094;2023-03-23T22:58:23;4.72;;;4.20;;
46455;SDS011;64052;47.466;9.094;2023-03-23T23:03:26;4.53;;;4.05;;
46455;SDS011;64052;47.466;9.094;2023-03-23T23:08:28;4.72;;;4.07;;
46455;SDS011;64052;47.466;9.094;2023-03-23T23:13:30;4.20;;;3.80;;
46455;SDS011;64052;47.466;9.094;2023-03-23T23:18:33;8.20;;;4.60;;
46455;SDS011;64052;47.466;9.094;2023-03-23T23:23:36;5.63;;;3.97;;
46455;SDS011;64052;47.466;9.094;2023-03-23T23:28:37;5.10;;;3.60;;
46455;SDS011;64052;47.466;9.094;2023-03-23T23:33:39;3.70;;;2.90;;
46455;SDS011;64052;47.466;9.094;2023-03-23T23:38:40;4.47;;;3.85;;
46455;SDS011;64052;47.466;9.094;2023-03-23T23:43:42;4.88;;;3.83;;
46455;SDS011;64052;47.466;9.094;2023-03-23T23:48:43;4.70;;;3.05;;
46455;SDS011;64052;47.466;9.094;2023-03-23T23:53:45;4.97;;;3.72;;
46455;SDS011;64052;47.466;9.094;2023-03-23T23:58:47;3.67;;;3.33;;
